createdAt,value
2018-05-18T00:01:29.702Z,83.74
2018-05-18T00:03:57.364Z,83.65
2018-05-18T00:06:24.035Z,84.25
2018-05-18T00:08:50.747Z,83.69
2018-05-18T00:11:17.352Z,84.79
2018-05-18T00:13:49.481Z,84.77
2018-05-18T00:16:16.137Z,84.64
2018-05-18T00:18:42.839Z,84.47
2018-05-18T00:21:09.938Z,84.16
2018-05-18T00:23:36.876Z,85.23
2018-05-18T00:26:03.608Z,85.28
2018-05-18T00:28:30.193Z,85.28
2018-05-18T00:30:56.792Z,83.31
2018-05-18T00:33:23.645Z,83.34
2018-05-18T00:35:50.897Z,81.54
2018-05-18T00:38:17.589Z,81.60
2018-05-18T00:40:44.580Z,81.63
2018-05-18T00:43:11.364Z,81.82
2018-05-18T00:45:38.088Z,82.24
2018-05-18T00:48:04.685Z,82.56
2018-05-18T00:50:31.308Z,84.25
2018-05-18T00:53:01.715Z,84.66
2018-05-18T00:55:41.228Z,84.98
2018-05-18T00:58:07.810Z,84.72
2018-05-18T01:00:34.574Z,84.08
2018-05-18T01:03:05.956Z,84.32
2018-05-18T01:05:32.739Z,85.51
2018-05-18T01:07:59.813Z,85.32
2018-05-18T01:10:26.542Z,85.33
2018-05-18T01:12:59.617Z,85.87
2018-05-18T01:15:26.346Z,85.91
2018-05-18T01:17:53.110Z,85.17
2018-05-18T01:20:19.862Z,86.12
2018-05-18T01:22:51.007Z,86.19
2018-05-18T01:25:17.768Z,85.58
2018-05-18T01:27:44.402Z,85.38
2018-05-18T01:30:10.975Z,84.48
2018-05-18T01:32:37.613Z,84.80
2018-05-18T01:35:09.328Z,84.59
2018-05-18T01:37:35.971Z,84.50
2018-05-18T01:40:02.584Z,84.98
2018-05-18T01:42:29.388Z,84.75
2018-05-18T01:44:57.196Z,84.81
2018-05-18T01:47:23.808Z,84.08
2018-05-18T01:49:50.598Z,84.74
2018-05-18T01:52:17.636Z,84.55
2018-05-18T01:54:45.317Z,84.24
2018-05-18T01:57:12.004Z,84.37
2018-05-18T01:59:38.664Z,84.30
2018-05-18T02:02:05.301Z,84.48
2018-05-18T02:04:33.132Z,84.54
2018-05-18T02:06:59.782Z,84.32
2018-05-18T02:09:26.509Z,84.70
2018-05-18T02:11:53.209Z,84.14
2018-05-18T02:14:25.972Z,84.32
2018-05-18T02:16:52.606Z,85.01
2018-05-18T02:19:19.103Z,84.93
2018-05-18T02:21:45.741Z,84.71
2018-05-18T02:24:15.525Z,84.29
2018-05-18T02:26:42.231Z,85.05
2018-05-18T02:29:08.898Z,85.13
2018-05-18T02:31:35.498Z,85.15
2018-05-18T02:34:05.575Z,84.06
2018-05-18T02:36:32.300Z,84.12
2018-05-18T02:38:59.057Z,83.99
2018-05-18T02:41:25.547Z,84.09
2018-05-18T02:43:53.281Z,85.68
2018-05-18T02:46:20.421Z,85.33
2018-05-18T02:48:47.046Z,83.84
2018-05-18T02:51:13.690Z,83.98
2018-05-18T02:53:41.502Z,83.83
2018-05-18T02:56:08.102Z,83.82
2018-05-18T02:58:34.894Z,83.56
2018-05-18T03:01:01.525Z,84.32
2018-05-18T03:03:28.226Z,84.07
2018-05-18T03:05:55.220Z,83.77
2018-05-18T03:08:21.969Z,83.68
2018-05-18T03:10:49.112Z,83.85
2018-05-18T03:13:16.970Z,84.27
2018-05-18T03:15:43.709Z,84.25
2018-05-18T03:18:11.572Z,83.80
2018-05-18T03:20:38.558Z,83.29
2018-05-18T03:23:06.268Z,83.93
2018-05-18T03:28:22.825Z,84.01
2018-05-18T03:30:49.983Z,83.35
2018-05-18T03:33:19.800Z,82.66
2018-05-18T03:35:46.733Z,82.18
2018-05-18T03:38:13.305Z,82.26
2018-05-18T03:40:40.303Z,82.07
2018-05-18T03:43:08.446Z,82.54
2018-05-18T03:45:34.999Z,83.02
2018-05-18T03:48:01.970Z,82.96
2018-05-18T03:50:28.626Z,82.83
2018-05-18T03:52:56.407Z,82.46
2018-05-18T03:55:23.039Z,81.84
2018-05-18T03:57:50.011Z,81.80
2018-05-18T04:00:16.620Z,81.64
2018-05-18T04:02:58.645Z,81.15
2018-05-18T04:05:37.194Z,81.33
2018-05-18T04:08:15.682Z,80.50
2018-05-18T04:10:42.616Z,82.30
2018-05-18T04:13:09.439Z,83.24
2018-05-18T04:15:36.117Z,84.00
2018-05-18T04:18:03.213Z,84.42
2018-05-18T04:20:29.715Z,83.92
2018-05-18T04:22:57.511Z,84.51
2018-05-18T04:25:24.232Z,84.73
2018-05-18T04:27:50.894Z,84.17
2018-05-18T04:30:17.611Z,83.21
2018-05-18T04:32:45.361Z,82.97
2018-05-18T04:35:12.335Z,82.48
2018-05-18T04:37:38.960Z,82.30
2018-05-18T04:40:05.614Z,82.61
2018-05-18T04:42:33.389Z,82.67
2018-05-18T04:45:00.012Z,83.22
2018-05-18T04:47:26.758Z,83.12
2018-05-18T04:49:53.541Z,81.13
2018-05-18T04:52:20.757Z,81.30
2018-05-18T04:54:47.299Z,80.69
2018-05-18T04:57:13.973Z,80.84
2018-05-18T04:59:40.616Z,79.66
2018-05-18T05:02:07.258Z,79.49
2018-05-18T05:04:35.172Z,79.80
2018-05-18T05:07:01.864Z,78.49
2018-05-18T05:09:28.644Z,76.92
2018-05-18T05:11:55.304Z,77.98
2018-05-18T05:14:23.178Z,77.68
2018-05-18T05:16:50.156Z,75.88
2018-05-18T05:19:16.770Z,75.32
2018-05-18T05:21:43.334Z,75.59
2018-05-18T05:24:11.270Z,75.79
2018-05-18T05:26:37.795Z,75.84
2018-05-18T05:29:04.505Z,75.17
2018-05-18T05:31:31.073Z,73.17
2018-05-18T05:33:57.872Z,72.39
2018-05-18T05:36:24.490Z,74.32
2018-05-18T05:38:51.109Z,73.36
2018-05-18T05:41:17.853Z,71.02
2018-05-18T05:43:49.633Z,71.41
2018-05-18T05:46:16.605Z,71.45
2018-05-18T05:48:43.317Z,70.91
2018-05-18T05:51:10.052Z,71.12
2018-05-18T05:53:37.903Z,72.52
2018-05-18T05:56:04.906Z,72.04
2018-05-18T05:58:31.635Z,71.55
2018-05-18T06:00:58.250Z,72.24
2018-05-18T06:03:26.212Z,71.19
2018-05-18T06:05:52.986Z,70.50
2018-05-18T06:08:19.690Z,69.63
2018-05-18T06:10:46.547Z,70.62
2018-05-18T06:13:16.749Z,69.67
2018-05-18T06:15:43.776Z,69.26
2018-05-18T06:18:10.451Z,69.52
2018-05-18T06:20:36.981Z,69.41
2018-05-18T06:23:07.172Z,68.60
2018-05-18T06:25:33.856Z,69.29
2018-05-18T06:28:00.566Z,70.50
2018-05-18T06:30:27.318Z,71.33
2018-05-18T06:32:57.953Z,70.42
2018-05-18T06:35:24.667Z,69.90
2018-05-18T06:37:51.199Z,70.72
2018-05-18T06:40:18.034Z,71.49
2018-05-18T06:42:45.034Z,70.31
2018-05-18T06:45:11.789Z,71.74
2018-05-18T06:47:38.619Z,70.92
2018-05-18T06:50:05.408Z,72.40
2018-05-18T06:52:37.249Z,71.01
2018-05-18T06:55:03.744Z,71.29
2018-05-18T06:57:30.654Z,70.81
2018-05-18T06:59:57.272Z,70.25
2018-05-18T07:02:28.253Z,69.16
2018-05-18T07:04:54.952Z,70.15
2018-05-18T07:07:21.590Z,69.03
2018-05-18T07:09:48.241Z,69.14
2018-05-18T07:12:18.322Z,69.21
2018-05-18T07:14:45.059Z,66.95
2018-05-18T07:17:12.024Z,66.42
2018-05-18T07:19:38.933Z,68.26
2018-05-18T07:22:06.950Z,68.11
2018-05-18T07:24:33.536Z,66.97
2018-05-18T07:27:00.281Z,65.07
2018-05-18T07:29:26.994Z,63.60
2018-05-18T07:31:58.167Z,63.40
2018-05-18T07:34:24.818Z,62.76
2018-05-18T07:36:51.724Z,61.84
2018-05-18T07:39:18.386Z,63.55
2018-05-18T07:41:45.309Z,62.20
2018-05-18T07:44:12.283Z,63.33
2018-05-18T07:46:39.193Z,61.29
2018-05-18T07:49:05.769Z,60.28
2018-05-18T07:51:32.432Z,60.06
2018-05-18T07:54:00.269Z,61.49
2018-05-18T07:56:27.145Z,61.20
2018-05-18T07:58:53.724Z,60.39
2018-05-18T08:01:20.390Z,59.58
2018-05-18T08:03:55.045Z,58.98
2018-05-18T08:06:21.781Z,56.05
2018-05-18T08:08:48.981Z,56.82
2018-05-18T08:11:15.763Z,56.35
2018-05-18T08:13:42.442Z,56.13
2018-05-18T08:16:09.453Z,54.58
2018-05-18T08:18:36.157Z,54.13
2018-05-18T08:21:02.937Z,54.41
2018-05-18T08:23:39.537Z,55.95
2018-05-18T08:26:06.141Z,52.95
2018-05-18T08:28:44.920Z,50.79
2018-05-18T08:31:11.609Z,53.67
2018-05-18T08:33:43.877Z,53.17
2018-05-18T08:36:10.645Z,52.97
2018-05-18T08:38:37.249Z,54.08
2018-05-18T08:41:03.949Z,53.61
2018-05-18T08:43:33.813Z,49.94
2018-05-18T08:46:00.726Z,46.40
2018-05-18T08:48:27.505Z,48.31
2018-05-18T08:50:54.056Z,48.92
2018-05-18T08:53:23.946Z,51.44
2018-05-18T08:55:50.657Z,50.01
2018-05-18T08:58:17.358Z,49.44
2018-05-18T09:00:44.042Z,40.47
2018-05-18T09:03:11.841Z,45.77
2018-05-18T09:05:38.526Z,45.68
2018-05-18T09:08:05.252Z,44.12
2018-05-18T09:10:32.208Z,47.00
2018-05-18T09:13:02.333Z,47.81
2018-05-18T09:15:29.158Z,44.70
2018-05-18T09:17:55.718Z,45.73
2018-05-18T09:20:22.224Z,45.92
2018-05-18T09:22:50.072Z,42.85
2018-05-18T09:25:16.789Z,42.52
2018-05-18T09:27:43.579Z,42.07
2018-05-18T09:30:10.398Z,41.70
2018-05-18T09:32:39.184Z,42.59
2018-05-18T09:35:05.892Z,41.39
2018-05-18T09:37:32.553Z,40.42
2018-05-18T09:39:59.638Z,43.47
2018-05-18T09:42:27.306Z,44.08
2018-05-18T09:44:54.369Z,45.89
2018-05-18T09:47:21.021Z,46.86
2018-05-18T09:49:47.729Z,44.59
2018-05-18T09:52:18.739Z,44.64
2018-05-18T09:54:45.725Z,43.83
2018-05-18T09:57:12.206Z,43.49
2018-05-18T09:59:39.102Z,42.73
2018-05-18T10:02:09.531Z,39.63
2018-05-18T10:04:36.281Z,40.82
2018-05-18T10:07:02.987Z,40.91
2018-05-18T10:09:29.642Z,40.75
2018-05-18T10:12:01.662Z,40.73
2018-05-18T10:14:28.343Z,41.23
2018-05-18T10:16:54.881Z,41.39
2018-05-18T10:19:21.629Z,40.81
2018-05-18T10:21:49.738Z,40.82
2018-05-18T10:24:16.410Z,39.19
2018-05-18T10:26:42.788Z,40.05
2018-05-18T10:29:09.246Z,40.29
2018-05-18T10:31:39.182Z,38.64
2018-05-18T10:34:05.870Z,38.55
2018-05-18T10:36:32.369Z,39.62
2018-05-18T10:38:59.368Z,39.72
2018-05-18T10:41:29.465Z,39.89
2018-05-18T10:43:56.197Z,39.19
2018-05-18T10:46:22.974Z,38.26
2018-05-18T10:48:49.720Z,34.56
2018-05-18T10:51:16.973Z,36.05
2018-05-18T10:53:43.734Z,36.80
2018-05-18T10:56:10.822Z,35.41
2018-05-18T10:58:37.465Z,35.20
2018-05-18T11:01:04.211Z,37.30
2018-05-18T11:03:32.104Z,35.46
2018-05-18T11:05:58.789Z,33.42
2018-05-18T11:08:25.563Z,33.32
2018-05-18T11:10:52.312Z,34.22
2018-05-18T11:13:21.213Z,32.68
2018-05-18T11:15:48.017Z,32.57
2018-05-18T11:18:14.881Z,32.10
2018-05-18T11:20:41.484Z,32.88
2018-05-18T11:23:09.553Z,31.82
2018-05-18T11:25:36.255Z,30.56
2018-05-18T11:28:03.021Z,32.07
2018-05-18T11:30:29.675Z,31.56
2018-05-18T11:32:59.790Z,27.94
2018-05-18T11:35:26.355Z,28.80
2018-05-18T11:37:53.042Z,29.38
2018-05-18T11:40:19.814Z,30.50
2018-05-18T11:42:50.297Z,31.92
2018-05-18T11:45:17.433Z,32.39
2018-05-18T11:47:44.173Z,31.89
2018-05-18T11:50:10.880Z,31.56
2018-05-18T11:52:38.713Z,32.53
2018-05-18T11:55:05.734Z,33.12
2018-05-18T11:57:32.442Z,32.74
2018-05-18T11:59:58.934Z,30.23
2018-05-18T12:02:26.761Z,31.51
2018-05-18T12:04:53.790Z,31.25
2018-05-18T12:07:20.485Z,30.91
2018-05-18T12:09:47.225Z,29.87
2018-05-18T12:12:17.013Z,30.78
2018-05-18T12:14:43.698Z,28.88
2018-05-18T12:17:10.366Z,30.06
2018-05-18T12:19:37.480Z,31.61
2018-05-18T12:22:05.178Z,28.72
2018-05-18T12:24:31.877Z,30.91
2018-05-18T12:26:58.477Z,31.88
2018-05-18T12:29:25.256Z,33.09
2018-05-18T12:31:54.036Z,30.55
2018-05-18T12:34:21.016Z,29.87
2018-05-18T12:36:47.741Z,31.74
2018-05-18T12:39:14.443Z,31.50
2018-05-18T12:41:44.922Z,32.44
2018-05-18T12:44:11.594Z,32.06
2018-05-18T12:46:38.320Z,31.37
2018-05-18T12:49:05.442Z,31.91
2018-05-18T12:51:33.208Z,32.34
2018-05-18T12:53:59.759Z,32.38
2018-05-18T12:56:26.371Z,33.61
2018-05-18T12:58:52.940Z,31.94
2018-05-18T13:01:20.551Z,31.78
2018-05-18T13:03:47.235Z,34.18
2018-05-18T13:06:14.009Z,34.01
2018-05-18T13:08:40.705Z,34.26
2018-05-18T13:11:11.084Z,36.26
2018-05-18T13:13:37.769Z,35.57
2018-05-18T13:16:04.368Z,36.13
2018-05-18T13:18:30.978Z,35.54
2018-05-18T13:20:57.589Z,36.30
2018-05-18T13:23:24.309Z,35.74
2018-05-18T13:25:50.970Z,35.41
2018-05-18T13:28:17.686Z,34.77
2018-05-18T13:30:44.364Z,35.80
2018-05-18T13:33:12.181Z,35.04
2018-05-18T13:35:39.192Z,33.93
2018-05-18T13:38:06.149Z,34.17
2018-05-18T13:40:32.767Z,34.18
2018-05-18T13:43:00.483Z,36.47
2018-05-18T13:45:27.241Z,34.61
2018-05-18T13:47:53.904Z,35.49
2018-05-18T13:50:20.576Z,35.24
2018-05-18T13:52:50.839Z,34.19
2018-05-18T13:55:17.492Z,33.40
2018-05-18T13:57:44.139Z,35.41
2018-05-18T14:00:10.813Z,34.17
2018-05-18T14:02:38.644Z,33.37
2018-05-18T14:05:05.271Z,36.01
2018-05-18T14:07:31.971Z,34.43
2018-05-18T14:09:58.649Z,34.17
2018-05-18T14:12:28.341Z,35.10
2018-05-18T14:14:55.010Z,33.84
2018-05-18T14:17:21.737Z,33.83
2018-05-18T14:19:48.362Z,33.62
2018-05-18T14:22:18.465Z,32.13
2018-05-18T14:24:45.224Z,32.44
2018-05-18T14:27:11.861Z,34.83
2018-05-18T14:29:38.662Z,33.39
2018-05-18T14:32:09.981Z,36.61
2018-05-18T14:34:37.157Z,36.28
2018-05-18T14:37:04.106Z,36.00
2018-05-18T14:39:31.093Z,35.84
2018-05-18T14:42:01.497Z,35.33
2018-05-18T14:44:28.131Z,34.51
2018-05-18T14:46:54.929Z,34.92
2018-05-18T14:49:21.713Z,35.76
2018-05-18T14:51:51.554Z,37.60
2018-05-18T14:54:18.271Z,35.95
2018-05-18T14:56:44.834Z,38.26
2018-05-18T14:59:11.597Z,37.56
2018-05-18T15:01:39.464Z,37.88
2018-05-18T15:04:06.110Z,39.48
2018-05-18T15:06:32.781Z,38.51
2018-05-18T15:08:59.425Z,38.37
2018-05-18T15:11:27.209Z,39.54
2018-05-18T15:13:53.765Z,38.25
2018-05-18T15:16:20.483Z,40.53
2018-05-18T15:18:47.046Z,39.26
2018-05-18T15:21:14.693Z,40.86
2018-05-18T15:23:41.359Z,38.55
2018-05-18T15:26:07.985Z,39.55
2018-05-18T15:28:35.236Z,38.71
2018-05-18T15:31:02.986Z,41.20
2018-05-18T15:33:29.701Z,38.83
2018-05-18T15:35:56.437Z,39.75
2018-05-18T15:38:23.039Z,41.16
2018-05-18T15:40:50.767Z,40.78
2018-05-18T15:43:17.461Z,41.28
2018-05-18T15:45:44.076Z,38.73
2018-05-18T15:48:10.738Z,39.08
2018-05-18T15:50:37.418Z,36.45
2018-05-18T15:53:03.995Z,35.94
2018-05-18T15:55:30.945Z,36.96
2018-05-18T15:57:57.679Z,35.72
2018-05-18T16:00:24.314Z,34.72
2018-05-18T16:02:54.600Z,36.92
2018-05-18T16:05:21.299Z,37.46
2018-05-18T16:07:48.752Z,40.25
2018-05-18T16:10:15.575Z,44.09
2018-05-18T16:12:43.350Z,44.11
2018-05-18T16:15:10.061Z,41.33
2018-05-18T16:17:37.042Z,40.47
2018-05-18T16:20:03.735Z,38.91
2018-05-18T16:22:36.259Z,41.45
2018-05-18T16:25:02.838Z,37.17
2018-05-18T16:27:29.504Z,40.06
2018-05-18T16:29:56.150Z,40.97
2018-05-18T16:32:25.964Z,40.96
2018-05-18T16:34:52.838Z,43.89
2018-05-18T16:37:19.517Z,44.38
2018-05-18T16:39:46.471Z,46.32
2018-05-18T16:42:16.980Z,47.81
2018-05-18T16:44:43.637Z,46.01
2018-05-18T16:47:10.379Z,45.68
2018-05-18T16:49:37.311Z,47.99
2018-05-18T16:52:07.967Z,47.26
2018-05-18T16:54:34.609Z,46.04
2018-05-18T16:57:01.545Z,50.36
2018-05-18T16:59:28.169Z,52.33
2018-05-18T17:01:55.890Z,53.66
2018-05-18T17:04:22.523Z,53.73
2018-05-18T17:06:49.169Z,53.53
2018-05-18T17:09:16.026Z,54.05
2018-05-18T17:11:43.888Z,54.10
2018-05-18T17:14:10.585Z,54.78
2018-05-18T17:16:37.304Z,55.11
2018-05-18T17:19:03.957Z,54.62
2018-05-18T17:21:31.666Z,54.68
2018-05-18T17:23:58.227Z,55.15
2018-05-18T17:26:24.806Z,54.75
2018-05-18T17:28:51.505Z,55.12
2018-05-18T17:31:21.502Z,55.15
2018-05-18T17:33:48.307Z,55.77
2018-05-18T17:36:15.053Z,55.55
2018-05-18T17:38:41.665Z,55.63
2018-05-18T17:41:12.599Z,56.71
2018-05-18T17:43:39.182Z,57.33
2018-05-18T17:46:05.667Z,58.13
2018-05-18T17:48:32.310Z,57.79
2018-05-18T17:51:02.855Z,58.34
2018-05-18T17:53:29.418Z,59.59
2018-05-18T17:55:56.368Z,60.22
2018-05-18T17:58:22.898Z,58.67
2018-05-18T18:00:50.723Z,57.77
2018-05-18T18:03:17.365Z,58.47
2018-05-18T18:05:44.027Z,57.75
2018-05-18T18:08:11.858Z,59.75
2018-05-18T18:10:39.517Z,58.60
2018-05-18T18:13:06.257Z,60.30
2018-05-18T18:15:32.888Z,58.83
2018-05-18T18:17:59.533Z,58.66
2018-05-18T18:20:27.622Z,59.59
2018-05-18T18:22:54.138Z,58.40
2018-05-18T18:25:20.769Z,59.03
2018-05-18T18:27:47.325Z,58.78
2018-05-18T18:30:15.095Z,59.06
2018-05-18T18:32:41.784Z,58.05
2018-05-18T18:35:08.494Z,57.09
2018-05-18T18:37:35.134Z,57.78
2018-05-18T18:40:01.704Z,58.36
2018-05-18T18:42:29.333Z,57.57
2018-05-18T18:44:55.917Z,57.70
2018-05-18T18:47:22.821Z,56.78
2018-05-18T18:49:49.798Z,56.63
2018-05-18T18:52:17.350Z,57.74
2018-05-18T18:54:43.987Z,57.62
2018-05-18T18:57:10.672Z,55.77
2018-05-18T18:59:37.467Z,55.34
2018-05-18T19:02:07.455Z,55.72
2018-05-18T19:04:34.118Z,57.14
2018-05-18T19:07:00.809Z,57.78
2018-05-18T19:09:27.382Z,58.65
2018-05-18T19:11:57.450Z,59.42
2018-05-18T19:14:24.205Z,55.27
2018-05-18T19:16:50.600Z,55.94
2018-05-18T19:19:17.166Z,57.24
2018-05-18T19:21:45.091Z,58.00
2018-05-18T19:24:12.405Z,57.93
2018-05-18T19:26:39.533Z,57.29
2018-05-18T19:29:08.336Z,55.29
2018-05-18T19:31:38.282Z,55.57
2018-05-18T19:34:05.098Z,56.33
2018-05-18T19:36:31.580Z,58.99
2018-05-18T19:38:59.128Z,58.42
2018-05-18T19:41:26.816Z,60.08
2018-05-18T19:43:53.436Z,58.39
2018-05-18T19:46:20.750Z,58.03
2018-05-18T19:48:47.413Z,58.08
2018-05-18T19:51:14.310Z,57.27
2018-05-18T19:53:40.941Z,55.72
2018-05-18T19:56:07.700Z,57.62
2018-05-18T19:58:34.337Z,59.57
2018-05-18T20:01:03.078Z,60.26
2018-05-18T20:03:30.207Z,60.88
2018-05-18T20:05:56.732Z,60.73
2018-05-18T20:08:23.575Z,63.10
2018-05-18T20:10:53.632Z,63.10
2018-05-18T20:13:20.312Z,62.76
2018-05-18T20:15:46.931Z,62.71
2018-05-18T20:18:13.555Z,62.76
2018-05-18T20:20:44.334Z,61.86
2018-05-18T20:23:10.930Z,62.13
2018-05-18T20:25:37.774Z,62.27
2018-05-18T20:28:04.226Z,63.12
2018-05-18T20:30:35.593Z,63.73
2018-05-18T20:33:02.365Z,63.90
2018-05-18T20:35:28.937Z,64.37
2018-05-18T20:37:55.916Z,64.16
2018-05-18T20:40:22.625Z,63.99
2018-05-18T20:42:49.130Z,64.65
2018-05-18T20:45:15.634Z,65.06
2018-05-18T20:47:42.569Z,66.94
2018-05-18T20:50:13.045Z,67.62
2018-05-18T20:52:39.987Z,66.31
2018-05-18T20:55:06.677Z,66.77
2018-05-18T20:57:33.274Z,65.82
2018-05-18T21:00:03.758Z,66.83
2018-05-18T21:02:30.590Z,65.99
2018-05-18T21:04:57.381Z,66.04
2018-05-18T21:07:24.019Z,65.99
2018-05-18T21:09:50.911Z,66.17
2018-05-18T21:12:17.646Z,65.55
2018-05-18T21:14:44.279Z,65.84
2018-05-18T21:17:11.749Z,66.84
2018-05-18T21:19:38.502Z,66.11
2018-05-18T21:22:08.266Z,66.60
2018-05-18T21:24:34.842Z,66.36
2018-05-18T21:27:01.462Z,66.87
2018-05-18T21:29:28.112Z,68.21
2018-05-18T21:31:55.681Z,67.07
2018-05-18T21:34:22.336Z,66.34
2018-05-18T21:36:48.850Z,67.84
2018-05-18T21:39:15.417Z,67.70
2018-05-18T21:41:43.229Z,68.49
2018-05-18T21:44:12.892Z,69.10
2018-05-18T21:46:39.718Z,71.04
2018-05-18T21:49:06.327Z,73.55
2018-05-18T21:51:35.977Z,75.71
2018-05-18T21:54:02.630Z,76.33
2018-05-18T21:56:29.326Z,78.17
2018-05-18T21:58:55.918Z,81.33
2018-05-18T22:01:25.873Z,83.49
2018-05-18T22:03:52.585Z,84.43
2018-05-18T22:06:19.161Z,85.81
2018-05-18T22:08:45.749Z,85.87
2018-05-18T22:11:13.783Z,84.45
2018-05-18T22:13:40.394Z,85.96
2018-05-18T22:16:07.416Z,84.85
2018-05-18T22:18:34.058Z,84.83
2018-05-18T22:21:01.188Z,84.05
2018-05-18T22:23:27.756Z,83.66
2018-05-18T22:25:54.408Z,83.71
2018-05-18T22:28:21.111Z,82.64
2018-05-18T22:30:57.793Z,82.96
2018-05-18T22:33:24.440Z,83.50
2018-05-18T22:35:51.207Z,83.80
2018-05-18T22:38:17.789Z,84.75
2018-05-18T22:40:45.522Z,84.28
2018-05-18T22:43:12.203Z,85.31
2018-05-18T22:45:38.935Z,85.79
2018-05-18T22:48:05.433Z,84.70
2018-05-18T22:50:35.403Z,85.71
2018-05-18T22:53:02.042Z,85.67
2018-05-18T22:55:28.654Z,84.65
2018-05-18T22:57:55.224Z,84.42
2018-05-18T23:00:27.411Z,83.49
2018-05-18T23:02:53.936Z,84.82
2018-05-18T23:05:21.163Z,85.13
2018-05-18T23:07:47.816Z,84.97
2018-05-18T23:10:15.714Z,85.63
2018-05-18T23:12:42.334Z,83.88
2018-05-18T23:15:08.956Z,82.93
2018-05-18T23:17:35.440Z,83.37
2018-05-18T23:20:05.616Z,84.93
2018-05-18T23:22:32.250Z,85.30
2018-05-18T23:24:58.993Z,84.96
2018-05-18T23:27:25.649Z,84.25
2018-05-18T23:29:57.229Z,84.38
2018-05-18T23:32:23.876Z,84.43
2018-05-18T23:34:50.425Z,83.54
2018-05-18T23:37:17.101Z,84.25
2018-05-18T23:39:46.973Z,85.73
2018-05-18T23:42:13.554Z,87.61
2018-05-18T23:44:40.288Z,86.92
2018-05-18T23:47:07.254Z,86.69
2018-05-18T23:49:40.242Z,86.96
2018-05-18T23:52:06.875Z,87.26
2018-05-18T23:54:33.601Z,87.76
2018-05-18T23:57:00.277Z,88.04
2018-05-18T23:59:26.989Z,87.83
